sensor_id;sensor_type;location;lat;lon;timestamp;P1;durP1;ratioP1;P2;durP2;ratioP2
26034;SDS011;13809;48.632;11.576;2023-05-01T00:02:13;4.10;;;3.80;;
26034;SDS011;13809;48.632;11.576;2023-05-01T00:07:18;4.80;;;4.03;;
26034;SDS011;13809;48.632;11.576;2023-05-01T00:12:21;4.47;;;4.07;;
26034;SDS011;13809;48.632;11.576;2023-05-01T00:17:24;4.07;;;3.77;;
26034;SDS011;13809;48.632;11.576;2023-05-01T00:22:30;3.80;;;3.50;;
26034;SDS011;13809;48.632;11.576;2023-05-01T00:27:33;3.80;;;3.50;;
26034;SDS011;13809;48.632;11.576;2023-05-01T00:32:36;3.90;;;3.60;;
26034;SDS011;13809;48.632;11.576;2023-05-01T00:37:41;3.77;;;3.47;;
26034;SDS011;13809;48.632;11.576;2023-05-01T00:42:44;4.23;;;3.30;;
26034;SDS011;13809;48.632;11.576;2023-05-01T00:47:50;3.87;;;3.47;;
26034;SDS011;13809;48.632;11.576;2023-05-01T00:52:55;3.40;;;3.10;;
26034;SDS011;13809;48.632;11.576;2023-05-01T00:57:59;3.50;;;3.30;;
26034;SDS011;13809;48.632;11.576;2023-05-01T01:03:03;3.80;;;3.50;;
26034;SDS011;13809;48.632;11.576;2023-05-01T01:08:10;3.47;;;3.20;;
26034;SDS011;13809;48.632;11.576;2023-05-01T01:13:21;3.20;;;2.90;;
26034;SDS011;13809;48.632;11.576;2023-05-01T01:18:32;3.57;;;3.33;;
26034;SDS011;13809;48.632;11.576;2023-05-01T01:23:48;3.43;;;3.23;;
26034;SDS011;13809;48.632;11.576;2023-05-01T01:29:24;2.97;;;2.77;;
26034;SDS011;13809;48.632;11.576;2023-05-01T01:34:44;3.47;;;3.13;;
26034;SDS011;13809;48.632;11.576;2023-05-01T01:39:52;3.70;;;3.30;;
26034;SDS011;13809;48.632;11.576;2023-05-01T01:45:03;3.30;;;3.10;;
26034;SDS011;13809;48.632;11.576;2023-05-01T01:50:12;3.20;;;3.00;;
26034;SDS011;13809;48.632;11.576;2023-05-01T01:55:16;3.23;;;3.03;;
26034;SDS011;13809;48.632;11.576;2023-05-01T02:00:23;3.30;;;3.00;;
26034;SDS011;13809;48.632;11.576;2023-05-01T02:05:28;2.70;;;2.50;;
26034;SDS011;13809;48.632;11.576;2023-05-01T02:10:34;2.40;;;2.27;;
26034;SDS011;13809;48.632;11.576;2023-05-01T02:15:39;2.70;;;2.50;;
26034;SDS011;13809;48.632;11.576;2023-05-01T02:20:45;2.90;;;2.60;;
26034;SDS011;13809;48.632;11.576;2023-05-01T02:25:48;2.70;;;2.50;;
26034;SDS011;13809;48.632;11.576;2023-05-01T02:30:54;3.50;;;3.20;;
26034;SDS011;13809;48.632;11.576;2023-05-01T02:36:00;3.83;;;3.00;;
26034;SDS011;13809;48.632;11.576;2023-05-01T02:41:03;2.83;;;2.63;;
26034;SDS011;13809;48.632;11.576;2023-05-01T02:46:09;3.20;;;3.00;;
26034;SDS011;13809;48.632;11.576;2023-05-01T02:51:16;3.23;;;3.03;;
26034;SDS011;13809;48.632;11.576;2023-05-01T02:56:21;3.07;;;2.87;;
26034;SDS011;13809;48.632;11.576;2023-05-01T03:01:24;3.20;;;3.00;;
26034;SDS011;13809;48.632;11.576;2023-05-01T03:06:30;3.30;;;3.00;;
26034;SDS011;13809;48.632;11.576;2023-05-01T03:11:33;3.07;;;2.87;;
26034;SDS011;13809;48.632;11.576;2023-05-01T03:16:36;3.47;;;3.27;;
26034;SDS011;13809;48.632;11.576;2023-05-01T03:21:41;3.60;;;3.30;;
26034;SDS011;13809;48.632;11.576;2023-05-01T03:26:44;3.27;;;3.07;;
26034;SDS011;13809;48.632;11.576;2023-05-01T03:31:47;3.60;;;3.20;;
26034;SDS011;13809;48.632;11.576;2023-05-01T03:36:51;3.60;;;3.40;;
26034;SDS011;13809;48.632;11.576;2023-05-01T03:41:55;3.67;;;3.37;;
26034;SDS011;13809;48.632;11.576;2023-05-01T03:46:59;3.50;;;3.20;;
26034;SDS011;13809;48.632;11.576;2023-05-01T03:52:03;3.30;;;3.10;;
26034;SDS011;13809;48.632;11.576;2023-05-01T03:57:07;3.40;;;3.10;;
26034;SDS011;13809;48.632;11.576;2023-05-01T04:02:10;3.23;;;3.03;;
26034;SDS011;13809;48.632;11.576;2023-05-01T04:07:14;3.30;;;3.07;;
26034;SDS011;13809;48.632;11.576;2023-05-01T04:12:17;2.87;;;2.67;;
26034;SDS011;13809;48.632;11.576;2023-05-01T04:17:21;2.80;;;2.60;;
26034;SDS011;13809;48.632;11.576;2023-05-01T04:22:25;3.37;;;3.00;;
26034;SDS011;13809;48.632;11.576;2023-05-01T04:27:28;3.40;;;3.20;;
26034;SDS011;13809;48.632;11.576;2023-05-01T04:32:31;3.53;;;3.33;;
26034;SDS011;13809;48.632;11.576;2023-05-01T04:37:37;3.47;;;3.23;;
26034;SDS011;13809;48.632;11.576;2023-05-01T04:42:40;3.77;;;3.47;;
26034;SDS011;13809;48.632;11.576;2023-05-01T04:47:43;3.80;;;3.50;;
26034;SDS011;13809;48.632;11.576;2023-05-01T04:52:48;3.30;;;3.00;;
26034;SDS011;13809;48.632;11.576;2023-05-01T04:57:51;3.47;;;3.17;;
26034;SDS011;13809;48.632;11.576;2023-05-01T05:02:54;3.67;;;3.37;;
26034;SDS011;13809;48.632;11.576;2023-05-01T05:07:59;3.93;;;3.53;;
26034;SDS011;13809;48.632;11.576;2023-05-01T05:13:03;4.60;;;3.60;;
26034;SDS011;13809;48.632;11.576;2023-05-01T05:18:06;3.43;;;3.13;;
26034;SDS011;13809;48.632;11.576;2023-05-01T05:23:11;4.10;;;3.80;;
26034;SDS011;13809;48.632;11.576;2023-05-01T05:28:14;4.57;;;4.17;;
26034;SDS011;13809;48.632;11.576;2023-05-01T05:33:17;4.10;;;3.70;;
26034;SDS011;13809;48.632;11.576;2023-05-01T05:38:22;4.50;;;4.10;;
26034;SDS011;13809;48.632;11.576;2023-05-01T05:43:25;5.60;;;4.80;;
26034;SDS011;13809;48.632;11.576;2023-05-01T05:48:28;4.67;;;4.30;;
26034;SDS011;13809;48.632;11.576;2023-05-01T05:53:33;5.67;;;5.00;;
26034;SDS011;13809;48.632;11.576;2023-05-01T05:58:36;4.87;;;4.47;;
26034;SDS011;13809;48.632;11.576;2023-05-01T06:03:39;4.77;;;4.37;;
26034;SDS011;13809;48.632;11.576;2023-05-01T06:08:44;5.47;;;5.00;;
26034;SDS011;13809;48.632;11.576;2023-05-01T06:13:47;5.10;;;4.60;;
26034;SDS011;13809;48.632;11.576;2023-05-01T06:18:50;5.17;;;4.77;;
26034;SDS011;13809;48.632;11.576;2023-05-01T06:23:55;5.00;;;4.60;;
26034;SDS011;13809;48.632;11.576;2023-05-01T06:28:58;5.60;;;5.10;;
26034;SDS011;13809;48.632;11.576;2023-05-01T06:34:01;4.80;;;4.40;;
26034;SDS011;13809;48.632;11.576;2023-05-01T06:39:06;4.67;;;4.27;;
26034;SDS011;13809;48.632;11.576;2023-05-01T06:44:09;5.27;;;4.77;;
26034;SDS011;13809;48.632;11.576;2023-05-01T06:49:12;5.23;;;4.73;;
26034;SDS011;13809;48.632;11.576;2023-05-01T06:54:17;5.20;;;4.80;;
26034;SDS011;13809;48.632;11.576;2023-05-01T06:59:20;5.13;;;4.73;;
26034;SDS011;13809;48.632;11.576;2023-05-01T07:04:23;5.07;;;4.57;;
26034;SDS011;13809;48.632;11.576;2023-05-01T07:09:28;5.00;;;4.60;;
26034;SDS011;13809;48.632;11.576;2023-05-01T07:14:31;4.93;;;4.43;;
26034;SDS011;13809;48.632;11.576;2023-05-01T07:19:35;5.00;;;4.60;;
26034;SDS011;13809;48.632;11.576;2023-05-01T07:24:40;4.87;;;4.47;;
26034;SDS011;13809;48.632;11.576;2023-05-01T07:29:43;5.53;;;4.50;;
26034;SDS011;13809;48.632;11.576;2023-05-01T07:34:47;4.73;;;4.43;;
26034;SDS011;13809;48.632;11.576;2023-05-01T07:39:51;4.77;;;4.37;;
26034;SDS011;13809;48.632;11.576;2023-05-01T07:44:55;4.40;;;4.00;;
26034;SDS011;13809;48.632;11.576;2023-05-01T07:49:58;4.90;;;4.50;;
26034;SDS011;13809;48.632;11.576;2023-05-01T07:55:04;4.47;;;4.17;;
26034;SDS011;13809;48.632;11.576;2023-05-01T08:00:08;4.50;;;4.20;;
26034;SDS011;13809;48.632;11.576;2023-05-01T08:05:12;4.07;;;3.57;;
26034;SDS011;13809;48.632;11.576;2023-05-01T08:10:17;4.50;;;4.10;;
26034;SDS011;13809;48.632;11.576;2023-05-01T08:15:20;5.13;;;4.57;;
26034;SDS011;13809;48.632;11.576;2023-05-01T08:20:23;4.67;;;4.27;;
26034;SDS011;13809;48.632;11.576;2023-05-01T08:25:28;4.97;;;4.50;;
26034;SDS011;13809;48.632;11.576;2023-05-01T08:30:32;4.50;;;4.10;;
26034;SDS011;13809;48.632;11.576;2023-05-01T08:35:35;4.70;;;4.17;;
26034;SDS011;13809;48.632;11.576;2023-05-01T08:40:40;4.80;;;4.40;;
26034;SDS011;13809;48.632;11.576;2023-05-01T08:45:49;4.83;;;4.43;;
26034;SDS011;13809;48.632;11.576;2023-05-01T08:50:56;4.37;;;3.97;;
26034;SDS011;13809;48.632;11.576;2023-05-01T08:56:03;4.93;;;4.63;;
26034;SDS011;13809;48.632;11.576;2023-05-01T09:01:08;5.03;;;4.63;;
26034;SDS011;13809;48.632;11.576;2023-05-01T09:06:16;4.90;;;4.40;;
26034;SDS011;13809;48.632;11.576;2023-05-01T09:11:21;5.13;;;4.70;;
26034;SDS011;13809;48.632;11.576;2023-05-01T09:16:24;5.00;;;4.60;;
26034;SDS011;13809;48.632;11.576;2023-05-01T09:21:27;5.93;;;4.40;;
26034;SDS011;13809;48.632;11.576;2023-05-01T09:26:33;5.33;;;4.80;;
26034;SDS011;13809;48.632;11.576;2023-05-01T09:31:38;5.17;;;4.80;;
26034;SDS011;13809;48.632;11.576;2023-05-01T09:36:42;5.47;;;4.97;;
26034;SDS011;13809;48.632;11.576;2023-05-01T09:41:52;5.53;;;5.03;;
26034;SDS011;13809;48.632;11.576;2023-05-01T09:46:55;5.23;;;4.83;;
26034;SDS011;13809;48.632;11.576;2023-05-01T09:52:09;5.60;;;5.20;;
26034;SDS011;13809;48.632;11.576;2023-05-01T09:57:13;5.27;;;4.87;;
26034;SDS011;13809;48.632;11.576;2023-05-01T10:02:26;5.60;;;5.10;;
26034;SDS011;13809;48.632;11.576;2023-05-01T10:07:31;5.53;;;5.03;;
26034;SDS011;13809;48.632;11.576;2023-05-01T10:12:35;5.37;;;4.87;;
26034;SDS011;13809;48.632;11.576;2023-05-01T10:17:39;6.00;;;5.40;;
26034;SDS011;13809;48.632;11.576;2023-05-01T10:22:44;6.10;;;5.70;;
26034;SDS011;13809;48.632;11.576;2023-05-01T10:27:49;6.07;;;5.57;;
26034;SDS011;13809;48.632;11.576;2023-05-01T10:32:53;6.30;;;5.80;;
26034;SDS011;13809;48.632;11.576;2023-05-01T10:37:57;6.70;;;6.10;;
26034;SDS011;13809;48.632;11.576;2023-05-01T10:43:14;6.77;;;6.27;;
26034;SDS011;13809;48.632;11.576;2023-05-01T10:59:26;6.47;;;5.87;;
26034;SDS011;13809;48.632;11.576;2023-05-01T11:04:45;7.43;;;6.53;;
26034;SDS011;13809;48.632;11.576;2023-05-01T11:09:52;10.63;;;9.73;;
26034;SDS011;13809;48.632;11.576;2023-05-01T11:15:04;7.27;;;6.67;;
26034;SDS011;13809;48.632;11.576;2023-05-01T11:20:09;7.73;;;7.03;;
26034;SDS011;13809;48.632;11.576;2023-05-01T11:25:16;7.53;;;6.77;;
26034;SDS011;13809;48.632;11.576;2023-05-01T11:30:22;16.50;;;15.00;;
26034;SDS011;13809;48.632;11.576;2023-05-01T11:35:26;7.50;;;6.80;;
26034;SDS011;13809;48.632;11.576;2023-05-01T11:40:31;7.17;;;6.47;;
26034;SDS011;13809;48.632;11.576;2023-05-01T11:45:36;7.60;;;6.97;;
26034;SDS011;13809;48.632;11.576;2023-05-01T11:50:40;7.40;;;6.80;;
26034;SDS011;13809;48.632;11.576;2023-05-01T11:55:44;6.37;;;5.77;;
26034;SDS011;13809;48.632;11.576;2023-05-01T12:00:49;6.73;;;6.23;;
26034;SDS011;13809;48.632;11.576;2023-05-01T12:05:52;6.87;;;6.23;;
26034;SDS011;13809;48.632;11.576;2023-05-01T12:10:56;7.80;;;7.20;;
26034;SDS011;13809;48.632;11.576;2023-05-01T12:16:01;7.13;;;6.60;;
26034;SDS011;13809;48.632;11.576;2023-05-01T12:21:06;7.83;;;7.23;;
26034;SDS011;13809;48.632;11.576;2023-05-01T12:26:18;7.33;;;6.73;;
26034;SDS011;13809;48.632;11.576;2023-05-01T12:31:25;6.93;;;6.33;;
26034;SDS011;13809;48.632;11.576;2023-05-01T12:36:30;7.33;;;6.73;;
26034;SDS011;13809;48.632;11.576;2023-05-01T12:41:36;6.87;;;6.27;;
26034;SDS011;13809;48.632;11.576;2023-05-01T12:46:42;7.03;;;6.43;;
26034;SDS011;13809;48.632;11.576;2023-05-01T12:51:46;5.90;;;5.40;;
26034;SDS011;13809;48.632;11.576;2023-05-01T12:56:50;6.03;;;5.53;;
26034;SDS011;13809;48.632;11.576;2023-05-01T13:01:59;7.00;;;6.50;;
26034;SDS011;13809;48.632;11.576;2023-05-01T13:07:09;7.40;;;6.80;;
26034;SDS011;13809;48.632;11.576;2023-05-01T13:12:13;7.00;;;6.50;;
26034;SDS011;13809;48.632;11.576;2023-05-01T13:17:22;7.63;;;7.03;;
26034;SDS011;13809;48.632;11.576;2023-05-01T13:22:28;6.93;;;6.33;;
26034;SDS011;13809;48.632;11.576;2023-05-01T13:27:32;6.87;;;6.27;;
26034;SDS011;13809;48.632;11.576;2023-05-01T13:32:38;7.50;;;6.90;;
26034;SDS011;13809;48.632;11.576;2023-05-01T13:37:42;7.67;;;6.97;;
26034;SDS011;13809;48.632;11.576;2023-05-01T13:42:45;7.33;;;6.83;;
26034;SDS011;13809;48.632;11.576;2023-05-01T13:47:55;7.33;;;6.83;;
26034;SDS011;13809;48.632;11.576;2023-05-01T13:52:59;8.30;;;7.60;;
26034;SDS011;13809;48.632;11.576;2023-05-01T13:58:02;7.53;;;6.93;;
26034;SDS011;13809;48.632;11.576;2023-05-01T14:03:06;7.20;;;6.60;;
26034;SDS011;13809;48.632;11.576;2023-05-01T14:08:13;7.33;;;6.80;;
26034;SDS011;13809;48.632;11.576;2023-05-01T14:13:16;7.30;;;6.80;;
26034;SDS011;13809;48.632;11.576;2023-05-01T14:18:21;7.60;;;7.00;;
26034;SDS011;13809;48.632;11.576;2023-05-01T14:23:24;7.87;;;7.27;;
26034;SDS011;13809;48.632;11.576;2023-05-01T14:28:28;7.13;;;6.63;;
26034;SDS011;13809;48.632;11.576;2023-05-01T14:33:33;7.83;;;7.33;;
26034;SDS011;13809;48.632;11.576;2023-05-01T14:38:42;7.77;;;7.17;;
26034;SDS011;13809;48.632;11.576;2023-05-01T14:43:49;6.73;;;6.23;;
26034;SDS011;13809;48.632;11.576;2023-05-01T14:48:55;8.43;;;7.77;;
26034;SDS011;13809;48.632;11.576;2023-05-01T14:53:59;9.63;;;8.83;;
26034;SDS011;13809;48.632;11.576;2023-05-01T14:59:02;8.77;;;8.00;;
26034;SDS011;13809;48.632;11.576;2023-05-01T15:04:07;8.10;;;7.40;;
26034;SDS011;13809;48.632;11.576;2023-05-01T15:09:13;8.53;;;7.73;;
26034;SDS011;13809;48.632;11.576;2023-05-01T15:14:16;9.00;;;8.30;;
26034;SDS011;13809;48.632;11.576;2023-05-01T15:19:20;7.80;;;7.20;;
26034;SDS011;13809;48.632;11.576;2023-05-01T15:24:24;7.93;;;7.30;;
26034;SDS011;13809;48.632;11.576;2023-05-01T15:29:27;7.20;;;6.67;;
26034;SDS011;13809;48.632;11.576;2023-05-01T15:34:32;8.87;;;8.07;;
26034;SDS011;13809;48.632;11.576;2023-05-01T15:39:35;7.97;;;7.27;;
26034;SDS011;13809;48.632;11.576;2023-05-01T15:44:38;9.77;;;8.77;;
26034;SDS011;13809;48.632;11.576;2023-05-01T15:49:43;8.47;;;7.80;;
26034;SDS011;13809;48.632;11.576;2023-05-01T15:54:46;18.53;;;9.57;;
26034;SDS011;13809;48.632;11.576;2023-05-01T15:59:50;8.27;;;7.60;;
26034;SDS011;13809;48.632;11.576;2023-05-01T16:04:57;8.07;;;7.37;;
26034;SDS011;13809;48.632;11.576;2023-05-01T16:10:01;9.07;;;8.27;;
26034;SDS011;13809;48.632;11.576;2023-05-01T16:15:05;8.93;;;8.23;;
26034;SDS011;13809;48.632;11.576;2023-05-01T16:20:11;9.10;;;8.40;;
26034;SDS011;13809;48.632;11.576;2023-05-01T16:25:17;8.50;;;7.80;;
26034;SDS011;13809;48.632;11.576;2023-05-01T16:30:21;8.73;;;8.03;;
26034;SDS011;13809;48.632;11.576;2023-05-01T16:35:29;8.53;;;7.87;;
26034;SDS011;13809;48.632;11.576;2023-05-01T16:40:32;8.03;;;7.43;;
26034;SDS011;13809;48.632;11.576;2023-05-01T16:45:37;8.20;;;7.50;;
26034;SDS011;13809;48.632;11.576;2023-05-01T16:50:42;8.70;;;8.00;;
26034;SDS011;13809;48.632;11.576;2023-05-01T16:55:45;8.63;;;7.93;;
26034;SDS011;13809;48.632;11.576;2023-05-01T17:00:48;9.03;;;8.33;;
26034;SDS011;13809;48.632;11.576;2023-05-01T17:05:53;9.90;;;9.00;;
26034;SDS011;13809;48.632;11.576;2023-05-01T17:10:59;9.63;;;8.83;;
26034;SDS011;13809;48.632;11.576;2023-05-01T17:16:02;9.67;;;8.90;;
26034;SDS011;13809;48.632;11.576;2023-05-01T17:21:07;9.30;;;8.60;;
26034;SDS011;13809;48.632;11.576;2023-05-01T17:26:10;8.87;;;8.17;;
26034;SDS011;13809;48.632;11.576;2023-05-01T17:31:16;8.97;;;8.20;;
26034;SDS011;13809;48.632;11.576;2023-05-01T17:36:24;9.27;;;8.57;;
26034;SDS011;13809;48.632;11.576;2023-05-01T17:41:27;9.13;;;8.43;;
26034;SDS011;13809;48.632;11.576;2023-05-01T17:46:30;9.90;;;9.10;;
26034;SDS011;13809;48.632;11.576;2023-05-01T17:51:35;9.37;;;8.57;;
26034;SDS011;13809;48.632;11.576;2023-05-01T17:56:38;9.27;;;8.47;;
26034;SDS011;13809;48.632;11.576;2023-05-01T18:01:41;8.67;;;7.97;;
26034;SDS011;13809;48.632;11.576;2023-05-01T18:06:46;9.40;;;8.60;;
26034;SDS011;13809;48.632;11.576;2023-05-01T18:11:49;9.33;;;8.53;;
26034;SDS011;13809;48.632;11.576;2023-05-01T18:16:52;9.87;;;9.00;;
26034;SDS011;13809;48.632;11.576;2023-05-01T18:21:57;9.33;;;8.53;;
26034;SDS011;13809;48.632;11.576;2023-05-01T18:27:00;9.60;;;8.80;;
26034;SDS011;13809;48.632;11.576;2023-05-01T18:32:04;10.33;;;9.43;;
26034;SDS011;13809;48.632;11.576;2023-05-01T18:37:08;10.20;;;9.40;;
26034;SDS011;13809;48.632;11.576;2023-05-01T18:42:11;10.07;;;9.27;;
26034;SDS011;13809;48.632;11.576;2023-05-01T18:47:14;10.03;;;9.17;;
26034;SDS011;13809;48.632;11.576;2023-05-01T18:52:19;10.07;;;9.17;;
26034;SDS011;13809;48.632;11.576;2023-05-01T18:57:22;9.97;;;9.17;;
26034;SDS011;13809;48.632;11.576;2023-05-01T19:02:25;10.27;;;9.37;;
26034;SDS011;13809;48.632;11.576;2023-05-01T19:07:30;9.80;;;9.00;;
26034;SDS011;13809;48.632;11.576;2023-05-01T19:12:33;10.20;;;9.40;;
26034;SDS011;13809;48.632;11.576;2023-05-01T19:17:36;10.10;;;9.20;;
26034;SDS011;13809;48.632;11.576;2023-05-01T19:22:42;9.83;;;9.03;;
26034;SDS011;13809;48.632;11.576;2023-05-01T19:27:45;9.83;;;9.03;;
26034;SDS011;13809;48.632;11.576;2023-05-01T19:32:49;10.03;;;9.23;;
26034;SDS011;13809;48.632;11.576;2023-05-01T19:37:54;10.80;;;9.90;;
26034;SDS011;13809;48.632;11.576;2023-05-01T19:42:57;9.77;;;8.73;;
26034;SDS011;13809;48.632;11.576;2023-05-01T19:48:00;9.07;;;8.37;;
26034;SDS011;13809;48.632;11.576;2023-05-01T19:53:05;9.00;;;8.30;;
26034;SDS011;13809;48.632;11.576;2023-05-01T19:58:08;8.57;;;7.87;;
26034;SDS011;13809;48.632;11.576;2023-05-01T20:03:11;8.63;;;7.90;;
26034;SDS011;13809;48.632;11.576;2023-05-01T20:08:17;8.67;;;7.87;;
26034;SDS011;13809;48.632;11.576;2023-05-01T20:13:21;7.87;;;7.27;;
26034;SDS011;13809;48.632;11.576;2023-05-01T20:18:24;7.63;;;7.03;;
26034;SDS011;13809;48.632;11.576;2023-05-01T20:23:29;7.33;;;6.67;;
26034;SDS011;13809;48.632;11.576;2023-05-01T20:28:32;6.13;;;5.73;;
26034;SDS011;13809;48.632;11.576;2023-05-01T20:33:35;5.30;;;4.90;;
26034;SDS011;13809;48.632;11.576;2023-05-01T20:38:41;5.73;;;5.33;;
26034;SDS011;13809;48.632;11.576;2023-05-01T20:43:45;5.87;;;5.37;;
26034;SDS011;13809;48.632;11.576;2023-05-01T20:48:49;4.90;;;4.50;;
26034;SDS011;13809;48.632;11.576;2023-05-01T20:53:53;4.73;;;4.43;;
26034;SDS011;13809;48.632;11.576;2023-05-01T20:58:57;4.20;;;3.90;;
26034;SDS011;13809;48.632;11.576;2023-05-01T21:04:01;4.40;;;4.10;;
26034;SDS011;13809;48.632;11.576;2023-05-01T21:09:08;4.03;;;3.63;;
26034;SDS011;13809;48.632;11.576;2023-05-01T21:14:15;4.43;;;4.13;;
26034;SDS011;13809;48.632;11.576;2023-05-01T21:19:18;4.50;;;4.20;;
26034;SDS011;13809;48.632;11.576;2023-05-01T21:24:24;3.83;;;3.53;;
26034;SDS011;13809;48.632;11.576;2023-05-01T21:29:27;4.60;;;4.30;;
26034;SDS011;13809;48.632;11.576;2023-05-01T21:34:30;4.40;;;4.10;;
26034;SDS011;13809;48.632;11.576;2023-05-01T21:39:35;4.03;;;3.73;;
26034;SDS011;13809;48.632;11.576;2023-05-01T21:44:38;5.10;;;3.97;;
26034;SDS011;13809;48.632;11.576;2023-05-01T21:49:41;4.13;;;3.83;;
26034;SDS011;13809;48.632;11.576;2023-05-01T21:54:46;4.50;;;4.20;;
26034;SDS011;13809;48.632;11.576;2023-05-01T21:59:49;4.37;;;4.07;;
26034;SDS011;13809;48.632;11.576;2023-05-01T22:04:57;3.60;;;3.40;;
26034;SDS011;13809;48.632;11.576;2023-05-01T22:10:02;4.10;;;3.80;;
26034;SDS011;13809;48.632;11.576;2023-05-01T22:15:06;4.30;;;4.00;;
26034;SDS011;13809;48.632;11.576;2023-05-01T22:20:10;4.70;;;4.40;;
26034;SDS011;13809;48.632;11.576;2023-05-01T22:25:15;4.97;;;4.57;;
26034;SDS011;13809;48.632;11.576;2023-05-01T22:30:18;4.90;;;4.50;;
26034;SDS011;13809;48.632;11.576;2023-05-01T22:35:21;4.77;;;4.37;;
26034;SDS011;13809;48.632;11.576;2023-05-01T22:40:25;5.30;;;4.87;;
26034;SDS011;13809;48.632;11.576;2023-05-01T22:45:29;5.50;;;5.10;;
26034;SDS011;13809;48.632;11.576;2023-05-01T22:50:32;5.77;;;5.37;;
26034;SDS011;13809;48.632;11.576;2023-05-01T22:55:37;6.53;;;5.90;;
26034;SDS011;13809;48.632;11.576;2023-05-01T23:00:40;6.53;;;6.00;;
26034;SDS011;13809;48.632;11.576;2023-05-01T23:05:43;5.97;;;5.57;;
26034;SDS011;13809;48.632;11.576;2023-05-01T23:10:48;5.37;;;4.90;;
26034;SDS011;13809;48.632;11.576;2023-05-01T23:15:51;5.73;;;5.23;;
26034;SDS011;13809;48.632;11.576;2023-05-01T23:20:55;6.20;;;5.70;;
26034;SDS011;13809;48.632;11.576;2023-05-01T23:26:00;5.40;;;5.00;;
26034;SDS011;13809;48.632;11.576;2023-05-01T23:31:03;6.10;;;5.60;;
26034;SDS011;13809;48.632;11.576;2023-05-01T23:36:06;5.80;;;5.40;;
26034;SDS011;13809;48.632;11.576;2023-05-01T23:41:12;5.50;;;5.10;;
26034;SDS011;13809;48.632;11.576;2023-05-01T23:46:16;5.40;;;5.00;;
26034;SDS011;13809;48.632;11.576;2023-05-01T23:51:19;5.80;;;5.37;;
26034;SDS011;13809;48.632;11.576;2023-05-01T23:56:23;5.30;;;4.90;;
